Gibson City, Illinois
Current Conditions -  °F | °C
As of 11:50 PM on Thursday 27 Nov 2014 (Local Time) from KTIP Reporting Station
Clear Clear  
Wind Chill: 17°   Ceiling: Unl
Heat Index: 17°   Visibility: 10mi
Dew Point: 10°   Wind: 3mph
Humidity: 76%   Direction: 330°NNW
Pressure: 30.39"   Gusts: NA
Location:  40.47°N, 88.38°W
Report Text: KTIP 280550Z AUTO 33003KT 10SM CLR M08/M12 A3039 RMK AO2 T10841120 11035 21085 410081085
Loading
Personal Weather Stations






























Interactive Weather Map New forecast layout! Learn more

10-Day Weather Forecast

Advertisements
Track Severe Weather on mobile